Higman Leader — WDH6840 — position and weather

sailwx.info

Track history (hours):
 
Tides and Currents Weather Stations Pressure Air Temp Water Temp Dewpoint Dewpoint Depression Visibility Wind Speed Wind Dir Waves Ship Positions

Higman Leader

Owner: Higman Barge Lines, Inc., Orange, TX. More information available from US FCC via Universal Licensing System and Coast Guard Vessel Documentation Center.

Last reported at 2018-Feb-15 21:53 UTC. Time now 2018-Feb-25 17:39 UTC.
Position N 32°37' W 091°09'.
Warning: this ship's position is 9 days out of date.

Length 35 m; draft 3 m.

Type: Towing. MMSI: 367642130.

Date/timePositionNaut miles runAvg speedWind from/ knotsBaromVisibWave heightAir tempDewpointWater temp
2018-Feb-15 21:53N 32°37' W 091°09'0 0.9
2018-Feb-15 21:31N 32°37' W 091°09'0 0.0
2018-Feb-15 21:00N 32°37' W 091°09'0 0.0
2018-Feb-15 20:28N 32°36' W 091°09'1 2.6
2018-Feb-15 20:00N 32°36' W 091°08'3 5.0
2018-Feb-15 19:30N 32°34' W 091°06'3 5.4
2018-Feb-15 19:00N 32°31' W 091°06'2 4.9
2018-Feb-15 18:31N 32°29' W 091°07'3 6.0
2018-Feb-15 18:01N 32°27' W 091°04'3 5.0
2018-Feb-15 17:31N 32°26' W 091°01'3 5.2
2018-Feb-15 17:01N 32°24' W 090°60'3 5.0
2018-Feb-15 16:30N 32°21' W 090°60'3 6.0
2018-Feb-15 16:01N 32°21' W 090°56'2 4.9
2018-Feb-15 15:31N 32°19' W 090°54'2 4.1
2018-Feb-15 15:01N 32°18' W 090°56'2 4.6
2018-Feb-15 14:31N 32°16' W 090°58'3 5.1
2018-Feb-15 14:01N 32°14' W 090°59'2 4.1
2018-Feb-15 13:30N 32°12' W 090°59'3 5.2
2018-Feb-15 13:01N 32°10' W 091°00'2 4.7
2018-Feb-15 12:30N 32°07' W 091°01'2 4.3
2018-Feb-15 12:00N 32°08' W 091°04'1 0.3
2018-Feb-15 08:22N 32°08' W 091°05'1 1.9
2018-Feb-15 08:00N 32°08' W 091°06'2 3.6
2018-Feb-15 07:31N 32°06' W 091°06'3 5.5
2018-Feb-15 06:57N 32°04' W 091°04'2 4.5
2018-Feb-15 06:31N 32°02' W 091°04'2 4.9
2018-Feb-15 06:01N 31°60' W 091°05'2 3.5
2018-Feb-15 05:29N 31°59' W 091°07'3 5.2
2018-Feb-15 04:57N 31°59' W 091°10'  
Track history (hours):
 
Tides and Currents Weather Stations Pressure Air Temp Water Temp Dewpoint Dewpoint Depression Visibility Wind Speed Wind Dir Waves Ship Positions

Higman Leader

Owner: Higman Barge Lines, Inc., Orange, TX. More information available from US FCC via Universal Licensing System and Coast Guard Vessel Documentation Center.

Last reported at 2018-Feb-15 21:53 UTC. Time now 2018-Feb-25 17:39 UTC.
Position N 32°37' W 091°09'.
Warning: this ship's position is 9 days out of date.

Length 35 m; draft 3 m.

Type: Towing. MMSI: 367642130.

Date/timePositionNaut miles runAvg speedWind from/ knotsBaromVisibWave heightAir tempDewpointWater temp
2018-Feb-15 21:53N 32°37' W 091°09'0 0.9
2018-Feb-15 21:31N 32°37' W 091°09'0 0.0
2018-Feb-15 21:00N 32°37' W 091°09'0 0.0
2018-Feb-15 20:28N 32°36' W 091°09'1 2.6
2018-Feb-15 20:00N 32°36' W 091°08'3 5.0
2018-Feb-15 19:30N 32°34' W 091°06'3 5.4
2018-Feb-15 19:00N 32°31' W 091°06'2 4.9
2018-Feb-15 18:31N 32°29' W 091°07'3 6.0
2018-Feb-15 18:01N 32°27' W 091°04'3 5.0
2018-Feb-15 17:31N 32°26' W 091°01'3 5.2
2018-Feb-15 17:01N 32°24' W 090°60'3 5.0
2018-Feb-15 16:30N 32°21' W 090°60'3 6.0
2018-Feb-15 16:01N 32°21' W 090°56'2 4.9
2018-Feb-15 15:31N 32°19' W 090°54'2 4.1
2018-Feb-15 15:01N 32°18' W 090°56'2 4.6
2018-Feb-15 14:31N 32°16' W 090°58'3 5.1
2018-Feb-15 14:01N 32°14' W 090°59'2 4.1
2018-Feb-15 13:30N 32°12' W 090°59'3 5.2
2018-Feb-15 13:01N 32°10' W 091°00'2 4.7
2018-Feb-15 12:30N 32°07' W 091°01'2 4.3
2018-Feb-15 12:00N 32°08' W 091°04'1 0.3
2018-Feb-15 08:22N 32°08' W 091°05'1 1.9
2018-Feb-15 08:00N 32°08' W 091°06'2 3.6
2018-Feb-15 07:31N 32°06' W 091°06'3 5.5
2018-Feb-15 06:57N 32°04' W 091°04'2 4.5
2018-Feb-15 06:31N 32°02' W 091°04'2 4.9
2018-Feb-15 06:01N 31°60' W 091°05'2 3.5
2018-Feb-15 05:29N 31°59' W 091°07'3 5.2
2018-Feb-15 04:57N 31°59' W 091°10'  

Dump ship's entire track history